createdAt,value
2022-12-23T00:01:07.813Z,96141.72
2022-12-23T00:06:11.072Z,96141.59
2022-12-23T00:11:16.913Z,96145.56
2022-12-23T00:16:18.952Z,96135.47
2022-12-23T00:21:22.075Z,96144.00
2022-12-23T00:26:26.803Z,96138.09
2022-12-23T00:31:28.829Z,96132.91
2022-12-23T00:36:30.991Z,96126.84
2022-12-23T00:41:53.269Z,96126.06
2022-12-23T00:46:55.317Z,96124.16
2022-12-23T00:51:57.751Z,96121.13
2022-12-23T00:57:01.562Z,96120.19
2022-12-23T01:02:22.794Z,96113.53
2022-12-23T01:07:25.264Z,96120.72
2022-12-23T01:12:28.585Z,96107.28
2022-12-23T01:17:30.585Z,96104.66
2022-12-23T01:22:32.540Z,96104.75
2022-12-23T01:27:35.813Z,96107.63
2022-12-23T01:32:37.784Z,96089.75
2022-12-23T01:37:40.053Z,96092.88
2022-12-23T01:42:43.432Z,96086.59
2022-12-23T01:47:50.371Z,96096.47
2022-12-23T01:53:07.836Z,96102.28
2022-12-23T01:58:14.758Z,96106.81
2022-12-23T02:03:35.411Z,96117.78
2022-12-23T02:08:58.240Z,96129.28
2022-12-23T02:14:36.220Z,96126.97
2022-12-23T02:20:17.509Z,96130.13
2022-12-23T02:25:46.116Z,96139.72
2022-12-23T02:30:59.430Z,96146.16
2022-12-23T02:36:15.117Z,96157.28
2022-12-23T02:41:23.279Z,96156.50
2022-12-23T02:46:32.704Z,96146.00
2022-12-23T02:51:39.555Z,96146.16
2022-12-23T02:56:46.825Z,96150.59
2022-12-23T03:01:52.251Z,96138.53
2022-12-23T03:06:56.922Z,96134.47
2022-12-23T03:12:05.407Z,96130.03
2022-12-23T03:17:20.794Z,96138.88
2022-12-23T03:22:26.349Z,96131.72
2022-12-23T03:27:34.029Z,96130.94
2022-12-23T03:32:43.762Z,96125.44
2022-12-23T03:37:49.892Z,96114.03
2022-12-23T03:42:58.485Z,96124.84
2022-12-23T03:48:06.015Z,96118.00
2022-12-23T03:53:13.580Z,96114.22
2022-12-23T03:58:24.635Z,96111.78
2022-12-23T04:03:34.181Z,96096.72
2022-12-23T04:08:38.433Z,96106.78
2022-12-23T04:13:40.641Z,96085.16
2022-12-23T04:18:43.973Z,96075.44
2022-12-23T04:23:45.934Z,96074.94
2022-12-23T04:28:47.868Z,96072.53
2022-12-23T04:33:51.147Z,96068.56
2022-12-23T04:38:53.092Z,96069.97
2022-12-23T04:43:55.066Z,96065.81
2022-12-23T04:48:58.367Z,96060.34
2022-12-23T04:54:00.374Z,96052.84
2022-12-23T04:59:04.192Z,96053.94
2022-12-23T05:04:07.543Z,96066.69
2022-12-23T05:09:09.940Z,96059.72
2022-12-23T05:14:12.519Z,96062.31
2022-12-23T05:19:15.891Z,96055.41
2022-12-23T05:24:17.837Z,96063.75
2022-12-23T05:29:19.810Z,96038.56
2022-12-23T05:34:23.269Z,96036.41
2022-12-23T05:39:25.233Z,96034.50
2022-12-23T05:44:27.155Z,96025.03
2022-12-23T05:49:30.438Z,96016.22
2022-12-23T05:54:32.579Z,96032.19
2022-12-23T05:59:34.549Z,96041.25
2022-12-23T06:04:37.867Z,96038.50
2022-12-23T06:09:39.814Z,96039.72
2022-12-23T06:14:41.775Z,96035.50
2022-12-23T06:19:45.113Z,96045.16
2022-12-23T06:24:47.494Z,96040.50
2022-12-23T06:29:49.453Z,96036.28
2022-12-23T06:34:53.355Z,96033.69
2022-12-23T06:39:55.382Z,96029.75
2022-12-23T06:44:57.340Z,96045.97
2022-12-23T06:50:01.723Z,96041.25
2022-12-23T06:55:04.298Z,96055.06
2022-12-23T07:00:07.308Z,96058.25
2022-12-23T07:05:10.802Z,96047.44
2022-12-23T07:10:13.006Z,96060.50
2022-12-23T07:15:15.044Z,96060.16
2022-12-23T07:20:18.434Z,96050.28
2022-12-23T07:25:20.456Z,96050.19
2022-12-23T07:30:22.615Z,96046.81
2022-12-23T07:35:25.950Z,96071.34
2022-12-23T07:40:28.070Z,96070.00
2022-12-23T07:45:30.412Z,96073.47
2022-12-23T07:50:33.921Z,96065.66
2022-12-23T07:55:36.202Z,96061.38
2022-12-23T08:00:38.366Z,96066.94
2022-12-23T08:05:41.762Z,96080.03
2022-12-23T08:10:48.287Z,96081.88
2022-12-23T08:15:55.049Z,96066.91
2022-12-23T08:21:00.161Z,96069.50
2022-12-23T08:26:04.595Z,96067.25
2022-12-23T08:31:09.234Z,96064.41
2022-12-23T08:36:20.789Z,96052.41
2022-12-23T08:41:27.323Z,96050.53
2022-12-23T08:46:29.450Z,96044.38
2022-12-23T08:51:33.028Z,96047.31
2022-12-23T08:56:35.770Z,96034.22
2022-12-23T09:01:37.849Z,96028.25
2022-12-23T09:06:42.876Z,96016.97
2022-12-23T09:11:44.988Z,96020.19
2022-12-23T09:16:50.004Z,96027.69
2022-12-23T09:21:53.297Z,96031.97
2022-12-23T09:26:55.235Z,96020.47
2022-12-23T09:31:57.302Z,96020.97
2022-12-23T09:37:00.699Z,96008.06
2022-12-23T09:42:07.976Z,96004.00
2022-12-23T09:47:15.750Z,96003.31
2022-12-23T09:52:25.492Z,95994.47
2022-12-23T09:57:31.734Z,96001.75
2022-12-23T10:02:43.121Z,95994.34
2022-12-23T10:07:52.067Z,95988.25
2022-12-23T10:12:56.391Z,95984.25
2022-12-23T10:18:02.403Z,95987.47
2022-12-23T10:23:11.256Z,95981.31
2022-12-23T10:28:13.287Z,95984.75
2022-12-23T10:33:20.529Z,95978.41
2022-12-23T10:38:35.847Z,95984.66
2022-12-23T10:43:54.033Z,95980.84
2022-12-23T10:49:05.433Z,95975.31
2022-12-23T10:54:11.441Z,95965.06
2022-12-23T10:59:15.457Z,95971.69
2022-12-23T11:04:23.804Z,95973.34
2022-12-23T11:09:37.138Z,95972.78
2022-12-23T11:14:41.689Z,95977.19
2022-12-23T11:19:43.676Z,95969.19
2022-12-23T11:24:46.980Z,95961.78
2022-12-23T11:29:54.273Z,95969.69
2022-12-23T11:34:56.742Z,95967.13
2022-12-23T11:40:00.329Z,95960.66
2022-12-23T11:45:07.151Z,95962.88
2022-12-23T11:50:27.853Z,95955.16
2022-12-23T11:55:32.914Z,95960.81
2022-12-23T12:00:41.256Z,95951.44
2022-12-23T12:05:49.669Z,95942.75
2022-12-23T12:11:00.187Z,95934.03
2022-12-23T12:16:16.319Z,95944.69
2022-12-23T12:21:23.690Z,95959.00
2022-12-23T12:26:30.637Z,95965.44
2022-12-23T12:31:37.849Z,95964.81
2022-12-23T12:36:47.637Z,95975.19
2022-12-23T12:41:54.230Z,95968.81
2022-12-23T12:47:15.974Z,95978.41
2022-12-23T12:52:27.365Z,95972.66
2022-12-23T12:57:34.322Z,95987.09
2022-12-23T13:02:52.255Z,95986.41
2022-12-23T13:08:11.817Z,95994.50
2022-12-23T13:13:32.293Z,96003.44
2022-12-23T13:18:43.290Z,96005.91
2022-12-23T13:23:52.987Z,96017.44
2022-12-23T13:29:08.224Z,96021.72
2022-12-23T13:34:24.194Z,96017.91
2022-12-23T13:39:42.067Z,96027.56
2022-12-23T13:44:45.726Z,96024.72
2022-12-23T13:50:01.639Z,96025.13
2022-12-23T13:55:18.316Z,96034.13
2022-12-23T14:00:29.030Z,96022.09
2022-12-23T14:05:35.585Z,96026.44
2022-12-23T14:10:39.065Z,96022.84
2022-12-23T14:16:08.233Z,96016.66
2022-12-23T14:21:23.361Z,96007.50
2022-12-23T14:26:39.229Z,96011.47
2022-12-23T14:31:44.497Z,96017.47
2022-12-23T14:37:14.982Z,96027.69
2022-12-23T14:42:34.481Z,96030.16
2022-12-23T14:47:40.373Z,96033.56
2022-12-23T14:52:49.880Z,96048.25
2022-12-23T14:58:05.789Z,96044.00
2022-12-23T15:03:12.133Z,96038.03
2022-12-23T15:08:27.433Z,96045.63
2022-12-23T15:13:30.982Z,96031.00
2022-12-23T15:18:32.998Z,96037.66
2022-12-23T15:23:36.510Z,96031.19
2022-12-23T15:28:39.206Z,96040.56
2022-12-23T15:39:09.653Z,96044.84
2022-12-23T15:44:15.285Z,96039.94
2022-12-23T15:49:19.176Z,96044.94
2022-12-23T15:54:26.967Z,96038.22
2022-12-23T15:59:32.908Z,96039.72
2022-12-23T16:04:35.068Z,96040.69
2022-12-23T16:09:38.454Z,96043.50
2022-12-23T16:14:41.762Z,96044.66
2022-12-23T16:19:46.701Z,96032.16
2022-12-23T16:24:53.649Z,96037.47
2022-12-23T16:29:57.481Z,96030.06
2022-12-23T16:35:10.693Z,96029.22
2022-12-23T16:40:15.752Z,96026.94
2022-12-23T16:45:17.724Z,96015.44
2022-12-23T16:50:19.978Z,96014.13
2022-12-23T16:55:23.315Z,96017.66
2022-12-23T17:00:25.326Z,96009.97
2022-12-23T17:05:27.323Z,96003.13
2022-12-23T17:10:30.638Z,96006.34
2022-12-23T17:15:32.631Z,96014.72
2022-12-23T17:20:34.709Z,96004.84
2022-12-23T17:25:38.014Z,96013.00
2022-12-23T17:30:40.975Z,96017.66
2022-12-23T17:35:43.882Z,96029.50
2022-12-23T17:40:48.139Z,96032.34
2022-12-23T17:45:50.459Z,96030.06
2022-12-23T17:50:52.518Z,96029.50
2022-12-23T17:55:55.903Z,96019.66
2022-12-23T18:00:57.911Z,96025.50
2022-12-23T18:06:02.218Z,96034.44
2022-12-23T18:11:06.889Z,96014.69
2022-12-23T18:16:11.012Z,96026.47
2022-12-23T18:21:17.319Z,96035.34
2022-12-23T18:26:20.863Z,96042.72
2022-12-23T18:31:24.339Z,96050.09
2022-12-23T18:36:28.547Z,96061.34
2022-12-23T18:41:31.940Z,96071.06
2022-12-23T18:46:33.997Z,96064.13
2022-12-23T18:51:36.081Z,96053.19
2022-12-23T18:56:39.449Z,96044.88
2022-12-23T19:01:41.481Z,96047.88
2022-12-23T19:06:43.631Z,96040.50
2022-12-23T19:11:48.603Z,96043.94
2022-12-23T19:16:52.072Z,96040.84
2022-12-23T19:21:54.787Z,96033.53
2022-12-23T19:26:58.143Z,96028.94
2022-12-23T19:32:00.413Z,96043.72
2022-12-23T19:37:02.389Z,96041.00
2022-12-23T19:42:05.743Z,96037.41
2022-12-23T19:47:07.773Z,96023.91
2022-12-23T19:52:10.068Z,96013.63
2022-12-23T19:57:13.470Z,96030.69
2022-12-23T20:02:16.637Z,96014.81
2022-12-23T20:07:18.829Z,96051.25
2022-12-23T20:12:22.189Z,96040.56
2022-12-23T20:17:24.190Z,96021.78
2022-12-23T20:22:26.194Z,96006.38
2022-12-23T20:27:29.581Z,95984.53
2022-12-23T20:32:31.561Z,95988.16
2022-12-23T20:37:33.537Z,95987.97
2022-12-23T20:42:37.116Z,95976.41
2022-12-23T20:47:39.524Z,95960.56
2022-12-23T20:52:41.618Z,95955.19
2022-12-23T20:57:45.750Z,95942.31
2022-12-23T21:02:47.796Z,95931.50
2022-12-23T21:07:49.895Z,95946.66
2022-12-23T21:12:53.221Z,95945.31
2022-12-23T21:17:55.213Z,95948.91
2022-12-23T21:22:57.240Z,95952.88
2022-12-23T21:28:00.832Z,95929.94
2022-12-23T21:33:03.558Z,95944.59
2022-12-23T21:38:05.525Z,95933.34
2022-12-23T21:43:09.147Z,95930.66
2022-12-23T21:48:11.151Z,95922.94
2022-12-23T21:53:13.394Z,95917.72
2022-12-23T21:58:16.729Z,95926.56
2022-12-23T22:03:18.763Z,95923.56
2022-12-23T22:08:20.752Z,95907.34
2022-12-23T22:13:25.158Z,95916.03
2022-12-23T22:18:27.148Z,95911.00
2022-12-23T22:23:29.128Z,95899.38
2022-12-23T22:28:34.709Z,95915.28
2022-12-23T22:33:36.721Z,95897.56
2022-12-23T22:38:38.871Z,95908.19
2022-12-23T22:43:42.223Z,95894.06
2022-12-23T22:48:44.424Z,95891.31
2022-12-23T22:53:46.894Z,95892.47
2022-12-23T22:58:50.994Z,95903.44
2022-12-23T23:03:57.331Z,95902.41
2022-12-23T23:09:00.056Z,95904.50
2022-12-23T23:14:04.210Z,95891.72
2022-12-23T23:19:08.932Z,95901.19
2022-12-23T23:24:11.939Z,95903.56
2022-12-23T23:29:15.276Z,95897.22
2022-12-23T23:34:17.268Z,95882.63
2022-12-23T23:39:19.319Z,95866.31
2022-12-23T23:44:22.662Z,95861.22
2022-12-23T23:49:24.812Z,95845.41
2022-12-23T23:54:26.944Z,95826.69
2022-12-23T23:59:30.592Z,95821.44
